Terminal Aerodrome Forecast
Issued by NWS Newport/Morehead City, NC

Home | Current Version | Previous Version | Graphics & Text | Print | Product List | Glossary Off
Versions: 1 2 3 4 5 6 7 8 9 10 11 12 13

000
FTUS42 KMHX 291727
TAFEWN
TAF
KEWN 291727Z 2918/3018 29008KT P6SM SKC
     FM300200 19005KT P6SM VCTS SCT050CB
     FM301000 21005KT P6SM SCT025 BKN060
     FM301200 25007KT P6SM BKN120=

USA.gov is the U.S. government's official web portal to all federal, state and local government web resources and services.